createdAt,value
2023-03-06T00:00:30.901Z,4.18
2023-03-06T00:02:58.876Z,4.20
2023-03-06T00:05:27.106Z,4.20
2023-03-06T00:07:54.933Z,4.19
2023-03-06T00:10:24.764Z,4.19
2023-03-06T00:12:53.827Z,4.14
2023-03-06T00:15:21.798Z,4.13
2023-03-06T00:17:49.548Z,4.15
2023-03-06T00:20:17.684Z,4.13
2023-03-06T00:22:45.579Z,4.14
2023-03-06T00:25:21.543Z,4.15
2023-03-06T00:27:49.639Z,4.11
2023-03-06T00:30:19.491Z,4.02
2023-03-06T00:32:47.248Z,3.98
2023-03-06T00:35:15.321Z,3.95
2023-03-06T00:37:43.210Z,3.93
2023-03-06T00:40:13.164Z,3.96
2023-03-06T00:42:41.029Z,3.95
2023-03-06T00:45:09.328Z,3.96
2023-03-06T00:47:37.215Z,3.87
2023-03-06T00:50:05.860Z,3.85
2023-03-06T00:52:33.751Z,3.83
2023-03-06T00:55:01.474Z,3.81
2023-03-06T00:57:29.254Z,3.81
2023-03-06T00:59:56.975Z,3.79
2023-03-06T01:02:24.844Z,3.81
2023-03-06T01:04:52.599Z,3.78
2023-03-06T01:07:20.345Z,3.77
2023-03-06T01:09:48.092Z,3.77
2023-03-06T01:12:15.886Z,3.76
2023-03-06T01:14:43.634Z,3.76
2023-03-06T01:17:11.583Z,3.71
2023-03-06T01:19:39.442Z,3.60
2023-03-06T01:22:07.179Z,3.49
2023-03-06T01:24:34.983Z,3.39
2023-03-06T01:27:02.761Z,3.36
2023-03-06T01:29:30.495Z,3.31
2023-03-06T01:31:58.263Z,3.23
2023-03-06T01:34:26.033Z,3.22
2023-03-06T01:36:53.758Z,3.26
2023-03-06T01:39:21.595Z,3.26
2023-03-06T01:41:49.368Z,3.26
2023-03-06T01:44:17.180Z,3.23
2023-03-06T01:46:45.817Z,3.20
2023-03-06T01:49:19.758Z,3.18
2023-03-06T01:51:52.416Z,3.12
2023-03-06T01:54:43.867Z,3.03
2023-03-06T01:57:19.066Z,2.98
2023-03-06T01:59:46.838Z,2.97
2023-03-06T02:02:14.664Z,2.94
2023-03-06T02:04:43.483Z,2.95
2023-03-06T02:07:11.312Z,2.97
2023-03-06T02:09:39.172Z,2.97
2023-03-06T02:12:14.885Z,2.99
2023-03-06T02:14:42.747Z,3.02
2023-03-06T02:17:11.384Z,3.00
2023-03-06T02:19:57.348Z,3.01
2023-03-06T02:22:25.205Z,2.94
2023-03-06T02:25:05.337Z,2.88
2023-03-06T02:27:33.105Z,2.80
2023-03-06T02:30:00.860Z,2.74
2023-03-06T02:32:28.670Z,2.81
2023-03-06T02:34:57.874Z,2.83
2023-03-06T02:37:26.466Z,2.86
2023-03-06T02:39:58.954Z,2.84
2023-03-06T02:42:27.280Z,2.82
2023-03-06T02:44:55.075Z,2.79
2023-03-06T02:47:22.821Z,2.81
2023-03-06T02:49:50.586Z,2.86
2023-03-06T02:52:18.551Z,2.87
2023-03-06T02:54:46.350Z,2.83
2023-03-06T02:57:14.088Z,2.80
2023-03-06T02:59:41.852Z,2.79
2023-03-06T03:02:09.682Z,2.73
2023-03-06T03:04:37.429Z,2.73
2023-03-06T03:07:05.347Z,2.69
2023-03-06T03:09:37.929Z,2.69
2023-03-06T03:12:07.216Z,2.71
2023-03-06T03:14:34.961Z,2.72
2023-03-06T03:17:02.750Z,2.75
2023-03-06T03:19:30.561Z,2.66
2023-03-06T03:21:58.385Z,2.66
2023-03-06T03:24:26.168Z,2.56
2023-03-06T03:26:54.090Z,2.51
2023-03-06T03:29:21.913Z,2.52
2023-03-06T03:31:49.717Z,2.50
2023-03-06T03:34:17.616Z,2.50
2023-03-06T03:36:45.649Z,2.53
2023-03-06T03:39:13.615Z,2.53
2023-03-06T03:41:41.357Z,2.52
2023-03-06T03:44:09.167Z,2.48
2023-03-06T03:46:36.925Z,2.52
2023-03-06T03:49:04.825Z,2.56
2023-03-06T03:51:32.751Z,2.56
2023-03-06T03:54:00.451Z,2.55
2023-03-06T03:56:28.269Z,2.58
2023-03-06T03:58:56.523Z,2.62
2023-03-06T04:01:24.323Z,2.63
2023-03-06T04:03:52.177Z,2.65
2023-03-06T04:06:20.073Z,2.65
2023-03-06T04:08:47.786Z,2.63
2023-03-06T04:11:15.552Z,2.63
2023-03-06T04:13:43.293Z,2.65
2023-03-06T04:16:11.059Z,2.66
2023-03-06T04:18:38.824Z,2.66
2023-03-06T04:21:06.746Z,2.62
2023-03-06T04:23:34.566Z,2.60
2023-03-06T04:26:02.365Z,2.60
2023-03-06T04:28:30.251Z,2.65
2023-03-06T04:30:57.975Z,2.69
2023-03-06T04:33:25.735Z,2.69
2023-03-06T04:35:53.578Z,2.66
2023-03-06T04:38:21.439Z,2.70
2023-03-06T04:40:50.802Z,2.70
2023-03-06T04:43:18.707Z,2.69
2023-03-06T04:45:46.583Z,2.71
2023-03-06T04:48:15.857Z,2.71
2023-03-06T04:50:43.668Z,2.71
2023-03-06T04:53:12.149Z,2.74
2023-03-06T04:55:39.935Z,2.76
2023-03-06T04:58:07.684Z,2.76
2023-03-06T05:00:35.923Z,2.73
2023-03-06T05:03:03.736Z,2.71
2023-03-06T05:05:31.513Z,2.74
2023-03-06T05:07:59.251Z,2.79
2023-03-06T05:10:26.987Z,2.81
2023-03-06T05:12:54.808Z,2.78
2023-03-06T05:15:22.588Z,2.83
2023-03-06T05:17:50.355Z,2.83
2023-03-06T05:20:18.311Z,2.83
2023-03-06T05:22:46.172Z,2.83
2023-03-06T05:25:14.151Z,2.80
2023-03-06T05:27:42.055Z,2.79
2023-03-06T05:30:12.443Z,2.76
2023-03-06T05:32:40.269Z,2.71
2023-03-06T05:35:08.480Z,2.68
2023-03-06T05:37:36.293Z,2.66
2023-03-06T05:40:07.225Z,2.69
2023-03-06T05:42:34.976Z,2.62
2023-03-06T05:45:03.821Z,2.64
2023-03-06T05:47:32.277Z,2.63
2023-03-06T05:50:00.189Z,2.65
2023-03-06T05:52:27.997Z,2.64
2023-03-06T05:54:55.888Z,2.63
2023-03-06T05:57:24.476Z,2.66
2023-03-06T05:59:52.260Z,2.67
2023-03-06T06:02:20.194Z,2.61
2023-03-06T06:04:48.044Z,2.59
2023-03-06T06:07:16.402Z,2.62
2023-03-06T06:09:46.700Z,2.65
2023-03-06T06:12:15.202Z,2.67
2023-03-06T06:14:43.073Z,2.64
2023-03-06T06:17:11.089Z,2.59
2023-03-06T06:19:39.480Z,2.58
2023-03-06T06:22:07.370Z,2.60
2023-03-06T06:24:35.458Z,2.63
2023-03-06T06:27:04.039Z,2.66
2023-03-06T06:29:32.126Z,2.72
2023-03-06T06:32:00.341Z,2.77
2023-03-06T06:34:28.662Z,2.81
2023-03-06T06:36:56.687Z,2.86
2023-03-06T06:39:24.609Z,2.85
2023-03-06T06:42:09.722Z,2.83
2023-03-06T06:44:41.596Z,2.83
2023-03-06T06:47:25.874Z,2.89
2023-03-06T06:49:54.861Z,2.81
2023-03-06T06:52:23.254Z,2.82
2023-03-06T06:54:51.123Z,2.84
2023-03-06T06:57:18.946Z,2.82
2023-03-06T06:59:46.723Z,2.87
2023-03-06T07:02:15.644Z,2.86
2023-03-06T07:05:00.240Z,2.88
2023-03-06T07:07:30.197Z,2.93
2023-03-06T07:09:58.044Z,3.01
2023-03-06T07:12:25.809Z,2.98
2023-03-06T07:14:53.577Z,2.97
2023-03-06T07:17:21.388Z,2.98
2023-03-06T07:19:49.673Z,3.02
2023-03-06T07:22:17.406Z,3.09
2023-03-06T07:24:45.237Z,3.07
2023-03-06T07:27:13.001Z,3.09
2023-03-06T07:29:40.730Z,3.15
2023-03-06T07:32:08.562Z,3.21
2023-03-06T07:34:36.448Z,3.36
2023-03-06T07:37:04.452Z,3.50
2023-03-06T07:39:32.482Z,3.48
2023-03-06T07:42:00.455Z,3.53
2023-03-06T07:44:28.623Z,3.72
2023-03-06T07:46:56.709Z,3.79
2023-03-06T07:49:24.725Z,3.56
2023-03-06T07:51:52.629Z,3.49
2023-03-06T07:54:20.556Z,3.44
2023-03-06T07:56:51.795Z,3.48
2023-03-06T07:59:19.791Z,3.50
2023-03-06T08:01:47.791Z,3.45
2023-03-06T08:04:15.760Z,3.39
2023-03-06T08:06:43.742Z,3.30
2023-03-06T08:09:12.083Z,3.29
2023-03-06T08:11:40.091Z,3.30
2023-03-06T08:14:07.923Z,3.30
2023-03-06T08:16:35.928Z,3.32
2023-03-06T08:19:03.961Z,3.37
2023-03-06T08:21:31.774Z,3.36
2023-03-06T08:23:59.739Z,3.37
2023-03-06T08:26:29.583Z,3.42
2023-03-06T08:28:58.601Z,3.39
2023-03-06T08:31:26.545Z,3.40
2023-03-06T08:33:55.528Z,3.42
2023-03-06T08:36:23.637Z,3.35
2023-03-06T08:38:51.846Z,3.23
2023-03-06T08:41:20.475Z,3.27
2023-03-06T08:43:48.773Z,3.27
2023-03-06T08:46:17.071Z,3.21
2023-03-06T08:48:44.984Z,3.18
2023-03-06T08:51:12.919Z,3.09
2023-03-06T08:53:43.666Z,2.99
2023-03-06T08:56:19.722Z,3.06
2023-03-06T08:58:47.934Z,3.10
2023-03-06T09:01:26.715Z,3.14
2023-03-06T09:03:55.687Z,3.10
2023-03-06T09:06:24.523Z,3.14
2023-03-06T09:08:53.712Z,3.25
2023-03-06T09:11:22.962Z,3.32
2023-03-06T09:13:50.980Z,3.39
2023-03-06T09:16:29.681Z,3.47
2023-03-06T09:19:04.506Z,3.54
2023-03-06T09:21:38.539Z,3.63
2023-03-06T09:24:08.924Z,3.69
2023-03-06T09:26:47.159Z,3.79
2023-03-06T09:29:17.679Z,3.81
2023-03-06T09:31:47.512Z,3.84
2023-03-06T09:34:30.474Z,3.98
2023-03-06T09:37:03.442Z,4.02
2023-03-06T09:39:31.769Z,3.97
2023-03-06T09:42:04.380Z,4.12
2023-03-06T09:44:33.892Z,4.20
2023-03-06T09:47:09.818Z,4.19
2023-03-06T09:50:02.799Z,4.14
2023-03-06T09:52:51.406Z,4.22
2023-03-06T09:55:20.885Z,4.23
2023-03-06T09:58:04.981Z,4.28
2023-03-06T10:00:49.079Z,4.31
2023-03-06T10:03:31.254Z,4.45
2023-03-06T10:06:14.791Z,4.50
2023-03-06T10:09:14.959Z,4.67
2023-03-06T10:11:54.328Z,4.76
2023-03-06T10:14:28.854Z,4.83
2023-03-06T10:16:57.720Z,4.97
2023-03-06T10:19:27.141Z,5.00
2023-03-06T10:22:05.857Z,5.17
2023-03-06T10:24:58.515Z,5.23
2023-03-06T10:27:44.493Z,5.28
2023-03-06T10:30:43.893Z,5.37
2023-03-06T10:33:20.829Z,5.55
2023-03-06T10:35:56.370Z,5.61
2023-03-06T10:38:27.739Z,5.73
2023-03-06T10:41:13.617Z,5.92
2023-03-06T10:44:07.917Z,6.07
2023-03-06T10:46:37.736Z,6.15
2023-03-06T10:49:10.449Z,6.24
2023-03-06T10:51:38.672Z,6.33
2023-03-06T10:54:15.746Z,6.40
2023-03-06T10:56:44.642Z,6.49
2023-03-06T10:59:15.818Z,6.54
2023-03-06T11:02:23.325Z,6.62
2023-03-06T11:04:53.710Z,6.61
2023-03-06T11:07:29.182Z,6.65
2023-03-06T11:10:00.300Z,6.66
2023-03-06T11:12:36.300Z,6.70
2023-03-06T11:15:30.098Z,6.74
2023-03-06T11:18:15.165Z,6.76
2023-03-06T11:20:55.772Z,6.78
2023-03-06T11:23:48.813Z,6.77
2023-03-06T11:26:22.308Z,6.82
2023-03-06T11:29:03.444Z,6.97
2023-03-06T11:31:57.406Z,7.10
2023-03-06T11:34:35.374Z,7.26
2023-03-06T11:37:09.991Z,7.29
2023-03-06T11:39:56.378Z,7.33
2023-03-06T11:42:33.044Z,7.36
2023-03-06T11:45:02.926Z,7.30
2023-03-06T11:47:34.344Z,7.12
2023-03-06T11:50:13.877Z,7.26
2023-03-06T11:52:50.671Z,7.32
2023-03-06T11:55:37.777Z,7.31
2023-03-06T11:58:33.615Z,7.39
2023-03-06T12:01:14.941Z,7.09
2023-03-06T12:04:04.459Z,6.88
2023-03-06T12:06:57.076Z,6.79
2023-03-06T12:09:40.222Z,6.78
2023-03-06T12:12:29.270Z,6.90
2023-03-06T12:15:18.379Z,7.12
2023-03-06T12:18:04.474Z,7.27
2023-03-06T12:21:07.616Z,7.44
2023-03-06T12:23:53.721Z,7.35
2023-03-06T12:26:37.698Z,7.32
2023-03-06T12:29:20.389Z,7.48
2023-03-06T12:32:07.535Z,7.68
2023-03-06T12:34:35.850Z,7.45
2023-03-06T12:37:38.963Z,7.48
2023-03-06T12:40:30.286Z,7.56
2023-03-06T12:43:03.927Z,7.59
2023-03-06T12:45:35.623Z,7.60
2023-03-06T12:48:03.969Z,7.64
2023-03-06T12:50:32.995Z,7.63
2023-03-06T12:53:34.059Z,7.58
2023-03-06T12:56:02.914Z,7.54
2023-03-06T12:58:31.155Z,7.45
2023-03-06T13:01:08.748Z,7.47
2023-03-06T13:03:40.602Z,7.48
2023-03-06T13:06:15.704Z,7.47
2023-03-06T13:09:02.336Z,7.40
2023-03-06T13:11:48.869Z,7.36
2023-03-06T13:14:48.718Z,7.30
2023-03-06T13:17:21.867Z,7.32
2023-03-06T13:19:50.328Z,7.29
2023-03-06T13:22:28.883Z,7.34
2023-03-06T13:25:18.331Z,7.28
2023-03-06T13:28:05.272Z,7.27
2023-03-06T13:30:36.698Z,7.24
2023-03-06T13:33:40.076Z,7.25
2023-03-06T13:36:43.790Z,7.23
2023-03-06T13:39:15.749Z,7.11
2023-03-06T13:41:59.803Z,7.07
2023-03-06T13:44:28.007Z,7.07
2023-03-06T13:47:01.218Z,7.05
2023-03-06T13:49:29.466Z,7.04
2023-03-06T13:52:10.596Z,7.02
2023-03-06T13:55:07.058Z,6.99
2023-03-06T13:57:44.259Z,6.96
2023-03-06T14:00:48.056Z,6.99
2023-03-06T14:03:52.960Z,7.00
2023-03-06T14:06:35.909Z,7.04
2023-03-06T14:09:06.115Z,6.96
2023-03-06T14:11:34.149Z,7.00
2023-03-06T14:14:02.175Z,7.00
2023-03-06T14:16:40.619Z,6.98
2023-03-06T14:19:18.318Z,7.01
2023-03-06T14:21:46.364Z,7.04
2023-03-06T14:24:19.035Z,7.00
2023-03-06T14:26:53.430Z,6.91
2023-03-06T14:29:26.120Z,6.95
2023-03-06T14:31:55.518Z,6.93
2023-03-06T14:34:29.358Z,6.95
2023-03-06T14:36:59.970Z,6.97
2023-03-06T14:39:35.489Z,6.99
2023-03-06T14:42:08.599Z,7.02
2023-03-06T14:44:37.080Z,7.00
2023-03-06T14:47:30.850Z,6.96
2023-03-06T14:50:27.608Z,6.86
2023-03-06T14:52:59.859Z,6.96
2023-03-06T14:55:29.085Z,7.00
2023-03-06T14:58:04.234Z,6.99
2023-03-06T15:00:36.905Z,6.89
2023-03-06T15:03:09.937Z,6.81
2023-03-06T15:05:38.827Z,6.74
2023-03-06T15:08:08.719Z,6.61
2023-03-06T15:10:37.058Z,6.52
2023-03-06T15:13:21.543Z,6.38
2023-03-06T15:16:05.558Z,6.26
2023-03-06T15:18:40.302Z,6.13
2023-03-06T15:21:21.285Z,6.06
2023-03-06T15:23:50.322Z,6.04
2023-03-06T15:26:39.627Z,6.10
2023-03-06T15:29:10.617Z,6.13
2023-03-06T15:31:43.275Z,6.07
2023-03-06T15:34:10.979Z,5.91
2023-03-06T15:36:45.600Z,5.87
2023-03-06T15:39:32.718Z,5.84
2023-03-06T15:42:09.081Z,5.78
2023-03-06T15:44:37.174Z,5.74
2023-03-06T15:47:09.167Z,5.71
2023-03-06T15:49:38.944Z,5.67
2023-03-06T15:52:10.084Z,5.59
2023-03-06T15:54:38.030Z,5.55
2023-03-06T15:57:06.910Z,5.58
2023-03-06T15:59:38.749Z,5.48
2023-03-06T16:02:17.205Z,5.41
2023-03-06T16:04:45.401Z,5.38
2023-03-06T16:07:13.870Z,5.40
2023-03-06T16:09:43.019Z,5.42
2023-03-06T16:12:26.873Z,5.44
2023-03-06T16:14:54.979Z,5.41
2023-03-06T16:17:22.974Z,5.40
2023-03-06T16:19:52.093Z,5.40
2023-03-06T16:22:20.158Z,5.39
2023-03-06T16:24:48.586Z,5.36
2023-03-06T16:27:18.383Z,5.41
2023-03-06T16:29:46.425Z,5.39
2023-03-06T16:32:14.465Z,5.38
2023-03-06T16:34:42.545Z,5.30
2023-03-06T16:37:12.801Z,5.24
2023-03-06T16:39:40.726Z,5.28
2023-03-06T16:42:08.700Z,5.23
2023-03-06T16:44:36.770Z,5.23
2023-03-06T16:47:04.860Z,5.20
2023-03-06T16:49:32.765Z,5.14
2023-03-06T16:52:00.888Z,5.13
2023-03-06T16:54:29.289Z,5.12
2023-03-06T16:56:57.601Z,5.13
2023-03-06T16:59:28.698Z,5.10
2023-03-06T17:02:02.929Z,5.12
2023-03-06T17:04:34.430Z,5.17
2023-03-06T17:07:07.610Z,5.17
2023-03-06T17:09:36.176Z,5.16
2023-03-06T17:12:04.220Z,5.16
2023-03-06T17:14:35.120Z,5.19
2023-03-06T17:17:04.096Z,5.33
2023-03-06T17:19:32.407Z,5.27
2023-03-06T17:22:00.481Z,5.16
2023-03-06T17:24:28.993Z,5.14
2023-03-06T17:26:57.201Z,5.08
2023-03-06T17:29:25.563Z,5.03
2023-03-06T17:31:53.702Z,5.06
2023-03-06T17:34:24.285Z,5.03
2023-03-06T17:36:52.721Z,5.00
2023-03-06T17:39:21.033Z,5.01
2023-03-06T17:41:49.201Z,5.03
2023-03-06T17:44:21.217Z,5.06
2023-03-06T17:46:49.491Z,5.02
2023-03-06T17:49:20.475Z,5.01
2023-03-06T17:51:48.663Z,4.99
2023-03-06T17:54:17.265Z,4.96
2023-03-06T17:56:45.331Z,4.93
2023-03-06T17:59:13.664Z,4.90
2023-03-06T18:01:42.155Z,4.92
2023-03-06T18:04:11.091Z,4.91
2023-03-06T18:06:39.347Z,4.91
2023-03-06T18:09:07.620Z,4.94
2023-03-06T18:11:35.730Z,4.97
2023-03-06T18:14:05.564Z,4.99
2023-03-06T18:16:33.711Z,4.98
2023-03-06T18:19:01.974Z,5.03
2023-03-06T18:21:30.088Z,5.05
2023-03-06T18:23:59.275Z,5.01
2023-03-06T18:26:28.974Z,4.99
2023-03-06T18:28:59.020Z,5.01
2023-03-06T18:31:29.840Z,4.98
2023-03-06T18:34:00.189Z,4.96
2023-03-06T18:36:30.331Z,4.94
2023-03-06T18:38:58.378Z,4.93
2023-03-06T18:41:26.549Z,4.94
2023-03-06T18:43:58.568Z,4.91
2023-03-06T18:46:27.304Z,4.89
2023-03-06T18:48:56.487Z,4.90
2023-03-06T18:51:24.749Z,4.92
2023-03-06T18:53:53.460Z,4.94
2023-03-06T18:56:22.505Z,4.92
2023-03-06T18:58:51.670Z,4.95
2023-03-06T19:01:20.040Z,4.95
2023-03-06T19:03:48.239Z,4.96
2023-03-06T19:06:18.213Z,4.98
2023-03-06T19:08:46.546Z,4.98
2023-03-06T19:11:16.162Z,4.99
2023-03-06T19:13:44.712Z,5.03
2023-03-06T19:16:20.733Z,5.03
2023-03-06T19:18:48.843Z,5.00
2023-03-06T19:21:20.856Z,5.00
2023-03-06T19:23:48.979Z,5.00
2023-03-06T19:26:17.564Z,5.02
2023-03-06T19:28:46.104Z,5.03
2023-03-06T19:31:31.152Z,5.05
2023-03-06T19:33:59.581Z,5.07
2023-03-06T19:36:32.377Z,5.11
2023-03-06T19:39:03.492Z,5.04
2023-03-06T19:41:31.727Z,5.02
2023-03-06T19:44:01.460Z,5.00
2023-03-06T19:46:29.557Z,4.93
2023-03-06T19:49:02.394Z,4.90
2023-03-06T19:51:30.449Z,4.88
2023-03-06T19:53:58.942Z,4.84
2023-03-06T19:56:29.042Z,4.81
2023-03-06T19:58:57.976Z,4.77
2023-03-06T20:01:27.462Z,4.75
2023-03-06T20:04:00.777Z,4.74
2023-03-06T20:06:35.178Z,4.73
2023-03-06T20:09:05.274Z,4.71
2023-03-06T20:11:33.774Z,4.72
2023-03-06T20:14:03.095Z,4.65
2023-03-06T20:16:31.842Z,4.65
2023-03-06T20:19:01.533Z,4.61
2023-03-06T20:21:34.824Z,4.67
2023-03-06T20:24:05.407Z,4.60
2023-03-06T20:26:36.186Z,4.54
2023-03-06T20:29:09.446Z,4.51
2023-03-06T20:31:38.089Z,4.48
2023-03-06T20:34:06.552Z,4.49
2023-03-06T20:36:37.463Z,4.47
2023-03-06T20:39:07.749Z,4.43
2023-03-06T20:41:40.547Z,4.43
2023-03-06T20:44:11.070Z,4.46
2023-03-06T20:46:40.861Z,4.51
2023-03-06T20:49:12.929Z,4.48
2023-03-06T20:51:41.385Z,4.48
2023-03-06T20:54:11.533Z,4.44
2023-03-06T20:56:43.025Z,4.44
2023-03-06T20:59:12.975Z,4.40
2023-03-06T21:01:43.539Z,4.38
2023-03-06T21:04:12.862Z,4.37
2023-03-06T21:06:41.504Z,4.32
2023-03-06T21:09:09.675Z,4.30
2023-03-06T21:11:37.892Z,4.27
2023-03-06T21:14:06.226Z,4.28
2023-03-06T21:16:34.686Z,4.27
2023-03-06T21:19:03.371Z,4.22
2023-03-06T21:21:33.928Z,4.23
2023-03-06T21:24:02.150Z,4.20
2023-03-06T21:26:31.377Z,4.18
2023-03-06T21:29:00.220Z,4.19
2023-03-06T21:31:31.303Z,4.18
2023-03-06T21:34:00.304Z,4.21
2023-03-06T21:36:28.429Z,4.18
2023-03-06T21:38:56.772Z,4.19
2023-03-06T21:41:30.646Z,4.13
2023-03-06T21:43:59.954Z,4.15
2023-03-06T21:46:28.169Z,4.13
2023-03-06T21:48:56.770Z,4.12
2023-03-06T21:51:25.336Z,4.08
2023-03-06T21:53:53.715Z,4.07
2023-03-06T21:56:22.924Z,4.07
2023-03-06T21:58:50.750Z,4.08
2023-03-06T22:01:20.702Z,4.09
2023-03-06T22:03:48.620Z,4.08
2023-03-06T22:06:18.304Z,4.05
2023-03-06T22:08:46.250Z,4.05
2023-03-06T22:11:21.997Z,4.00
2023-03-06T22:13:49.915Z,3.97
2023-03-06T22:16:19.725Z,4.00
2023-03-06T22:18:48.571Z,3.98
2023-03-06T22:21:17.342Z,3.92
2023-03-06T22:23:45.142Z,3.90
2023-03-06T22:26:13.916Z,3.88
2023-03-06T22:28:42.263Z,3.88
2023-03-06T22:31:11.999Z,3.87
2023-03-06T22:33:39.938Z,3.85
2023-03-06T22:36:09.666Z,3.90
2023-03-06T22:38:38.980Z,3.89
2023-03-06T22:41:07.163Z,3.89
2023-03-06T22:43:35.144Z,3.89
2023-03-06T22:46:16.800Z,3.91
2023-03-06T22:48:44.744Z,3.91
2023-03-06T22:51:14.462Z,3.89
2023-03-06T22:53:42.602Z,3.87
2023-03-06T22:56:12.193Z,3.86
2023-03-06T22:58:40.124Z,3.85
2023-03-06T23:01:13.040Z,3.87
2023-03-06T23:03:42.233Z,3.86
2023-03-06T23:06:10.858Z,3.88
2023-03-06T23:08:38.863Z,3.91
2023-03-06T23:11:13.308Z,3.89
2023-03-06T23:13:41.184Z,3.84
2023-03-06T23:16:09.510Z,3.87
2023-03-06T23:18:37.917Z,3.86
2023-03-06T23:21:15.878Z,3.86
2023-03-06T23:23:45.335Z,3.87
2023-03-06T23:26:14.588Z,3.88
2023-03-06T23:28:42.616Z,3.91
2023-03-06T23:31:14.894Z,3.93
2023-03-06T23:33:42.854Z,3.91
2023-03-06T23:36:12.420Z,3.96
2023-03-06T23:38:40.193Z,3.96
2023-03-06T23:41:09.394Z,4.01
2023-03-06T23:43:37.571Z,4.01
2023-03-06T23:46:05.552Z,4.04
2023-03-06T23:48:33.400Z,4.03
2023-03-06T23:51:01.713Z,4.03
2023-03-06T23:53:29.499Z,4.02
2023-03-06T23:55:57.615Z,4.03
2023-03-06T23:58:25.350Z,4.04
